sensor_id;sensor_type;location;lat;lon;timestamp;P1;durP1;ratioP1;P2;durP2;ratioP2
6651;SDS011;3362;50.892;10.692;2022-10-23T00:01:57;4.78;;;1.88;;
6651;SDS011;3362;50.892;10.692;2022-10-23T00:04:23;5.50;;;1.67;;
6651;SDS011;3362;50.892;10.692;2022-10-23T00:06:53;5.60;;;1.90;;
6651;SDS011;3362;50.892;10.692;2022-10-23T00:09:21;5.85;;;3.10;;
6651;SDS011;3362;50.892;10.692;2022-10-23T00:11:48;10.10;;;3.05;;
6651;SDS011;3362;50.892;10.692;2022-10-23T00:14:15;10.48;;;3.72;;
6651;SDS011;3362;50.892;10.692;2022-10-23T00:16:42;10.48;;;2.97;;
6651;SDS011;3362;50.892;10.692;2022-10-23T00:19:09;9.65;;;3.35;;
6651;SDS011;3362;50.892;10.692;2022-10-23T00:21:38;8.45;;;3.50;;
6651;SDS011;3362;50.892;10.692;2022-10-23T00:24:06;4.45;;;2.20;;
6651;SDS011;3362;50.892;10.692;2022-10-23T00:26:33;3.05;;;2.00;;
6651;SDS011;3362;50.892;10.692;2022-10-23T00:29:05;4.97;;;1.55;;
6651;SDS011;3362;50.892;10.692;2022-10-23T00:31:32;1.67;;;1.27;;
6651;SDS011;3362;50.892;10.692;2022-10-23T00:33:59;4.30;;;1.38;;
6651;SDS011;3362;50.892;10.692;2022-10-23T00:36:26;2.03;;;1.25;;
6651;SDS011;3362;50.892;10.692;2022-10-23T00:38:54;8.18;;;1.73;;
6651;SDS011;3362;50.892;10.692;2022-10-23T00:41:24;2.00;;;1.40;;
6651;SDS011;3362;50.892;10.692;2022-10-23T00:43:57;3.63;;;1.42;;
6651;SDS011;3362;50.892;10.692;2022-10-23T00:46:24;8.32;;;1.92;;
6651;SDS011;3362;50.892;10.692;2022-10-23T00:48:51;2.45;;;1.63;;
6651;SDS011;3362;50.892;10.692;2022-10-23T00:51:20;2.95;;;1.60;;
6651;SDS011;3362;50.892;10.692;2022-10-23T00:53:48;2.83;;;1.50;;
6651;SDS011;3362;50.892;10.692;2022-10-23T00:56:18;5.03;;;1.73;;
6651;SDS011;3362;50.892;10.692;2022-10-23T00:58:46;1.83;;;1.45;;
6651;SDS011;3362;50.892;10.692;2022-10-23T01:01:14;2.45;;;1.50;;
6651;SDS011;3362;50.892;10.692;2022-10-23T01:03:41;3.58;;;1.38;;
6651;SDS011;3362;50.892;10.692;2022-10-23T01:06:08;11.18;;;5.07;;
6651;SDS011;3362;50.892;10.692;2022-10-23T01:08:37;13.82;;;5.88;;
6651;SDS011;3362;50.892;10.692;2022-10-23T01:11:08;18.65;;;7.95;;
6651;SDS011;3362;50.892;10.692;2022-10-23T01:13:36;21.13;;;7.70;;
6651;SDS011;3362;50.892;10.692;2022-10-23T01:16:07;8.73;;;4.18;;
6651;SDS011;3362;50.892;10.692;2022-10-23T01:18:38;7.15;;;2.70;;
6651;SDS011;3362;50.892;10.692;2022-10-23T01:21:07;13.82;;;4.95;;
6651;SDS011;3362;50.892;10.692;2022-10-23T01:23:46;16.75;;;7.80;;
6651;SDS011;3362;50.892;10.692;2022-10-23T01:26:25;23.20;;;8.35;;
6651;SDS011;3362;50.892;10.692;2022-10-23T01:28:56;20.63;;;7.93;;
6651;SDS011;3362;50.892;10.692;2022-10-23T01:31:26;16.75;;;7.25;;
6651;SDS011;3362;50.892;10.692;2022-10-23T01:33:56;14.77;;;6.22;;
6651;SDS011;3362;50.892;10.692;2022-10-23T01:36:25;12.98;;;5.43;;
6651;SDS011;3362;50.892;10.692;2022-10-23T01:38:53;10.25;;;5.05;;
6651;SDS011;3362;50.892;10.692;2022-10-23T01:41:23;9.13;;;4.05;;
6651;SDS011;3362;50.892;10.692;2022-10-23T01:43:52;7.32;;;3.38;;
6651;SDS011;3362;50.892;10.692;2022-10-23T01:46:22;7.28;;;2.42;;
6651;SDS011;3362;50.892;10.692;2022-10-23T01:48:51;4.60;;;1.98;;
6651;SDS011;3362;50.892;10.692;2022-10-23T01:51:19;2.97;;;1.63;;
6651;SDS011;3362;50.892;10.692;2022-10-23T01:53:47;4.57;;;1.98;;
6651;SDS011;3362;50.892;10.692;2022-10-23T01:56:16;5.05;;;2.65;;
6651;SDS011;3362;50.892;10.692;2022-10-23T01:58:44;4.63;;;2.53;;
6651;SDS011;3362;50.892;10.692;2022-10-23T02:01:12;10.57;;;1.92;;
6651;SDS011;3362;50.892;10.692;2022-10-23T02:03:41;4.30;;;1.88;;
6651;SDS011;3362;50.892;10.692;2022-10-23T02:06:09;4.68;;;1.77;;
6651;SDS011;3362;50.892;10.692;2022-10-23T02:08:36;3.33;;;1.77;;
6651;SDS011;3362;50.892;10.692;2022-10-23T02:11:03;3.75;;;1.48;;
6651;SDS011;3362;50.892;10.692;2022-10-23T02:13:32;3.08;;;2.13;;
6651;SDS011;3362;50.892;10.692;2022-10-23T02:16:02;2.55;;;1.65;;
6651;SDS011;3362;50.892;10.692;2022-10-23T02:18:32;2.72;;;1.67;;
6651;SDS011;3362;50.892;10.692;2022-10-23T02:21:03;2.30;;;1.92;;
6651;SDS011;3362;50.892;10.692;2022-10-23T02:23:32;3.20;;;2.05;;
6651;SDS011;3362;50.892;10.692;2022-10-23T02:26:02;14.75;;;1.60;;
6651;SDS011;3362;50.892;10.692;2022-10-23T02:28:30;3.35;;;1.33;;
6651;SDS011;3362;50.892;10.692;2022-10-23T02:31:03;2.40;;;1.45;;
6651;SDS011;3362;50.892;10.692;2022-10-23T02:33:31;6.00;;;1.67;;
6651;SDS011;3362;50.892;10.692;2022-10-23T02:35:58;3.15;;;1.58;;
6651;SDS011;3362;50.892;10.692;2022-10-23T02:38:27;2.50;;;1.48;;
6651;SDS011;3362;50.892;10.692;2022-10-23T02:40:54;7.28;;;1.30;;
6651;SDS011;3362;50.892;10.692;2022-10-23T02:43:24;9.35;;;1.83;;
6651;SDS011;3362;50.892;10.692;2022-10-23T02:45:53;4.53;;;1.60;;
6651;SDS011;3362;50.892;10.692;2022-10-23T02:48:23;8.30;;;2.80;;
6651;SDS011;3362;50.892;10.692;2022-10-23T02:50:55;4.97;;;1.77;;
6651;SDS011;3362;50.892;10.692;2022-10-23T02:53:25;5.20;;;2.10;;
6651;SDS011;3362;50.892;10.692;2022-10-23T02:55:59;2.13;;;1.73;;
6651;SDS011;3362;50.892;10.692;2022-10-23T02:58:30;4.13;;;1.50;;
6651;SDS011;3362;50.892;10.692;2022-10-23T03:00:59;4.30;;;1.70;;
6651;SDS011;3362;50.892;10.692;2022-10-23T03:03:29;2.58;;;1.38;;
6651;SDS011;3362;50.892;10.692;2022-10-23T03:06:00;6.25;;;1.20;;
6651;SDS011;3362;50.892;10.692;2022-10-23T03:08:29;2.42;;;1.17;;
6651;SDS011;3362;50.892;10.692;2022-10-23T03:10:56;3.20;;;2.03;;
6651;SDS011;3362;50.892;10.692;2022-10-23T03:13:26;3.40;;;1.60;;
6651;SDS011;3362;50.892;10.692;2022-10-23T03:15:53;3.05;;;1.73;;
6651;SDS011;3362;50.892;10.692;2022-10-23T03:18:20;3.35;;;1.77;;
6651;SDS011;3362;50.892;10.692;2022-10-23T03:20:46;5.80;;;1.75;;
6651;SDS011;3362;50.892;10.692;2022-10-23T03:23:13;5.63;;;2.17;;
6651;SDS011;3362;50.892;10.692;2022-10-23T03:25:40;3.70;;;1.88;;
6651;SDS011;3362;50.892;10.692;2022-10-23T03:28:09;1.75;;;1.60;;
6651;SDS011;3362;50.892;10.692;2022-10-23T03:30:37;1.33;;;1.17;;
6651;SDS011;3362;50.892;10.692;2022-10-23T03:33:04;2.10;;;1.45;;
6651;SDS011;3362;50.892;10.692;2022-10-23T03:35:30;5.65;;;1.33;;
6651;SDS011;3362;50.892;10.692;2022-10-23T03:37:57;3.95;;;1.45;;
6651;SDS011;3362;50.892;10.692;2022-10-23T03:40:24;2.85;;;1.17;;
6651;SDS011;3362;50.892;10.692;2022-10-23T03:42:50;2.13;;;1.40;;
6651;SDS011;3362;50.892;10.692;2022-10-23T03:45:17;1.60;;;1.00;;
6651;SDS011;3362;50.892;10.692;2022-10-23T03:47:45;4.53;;;1.02;;
6651;SDS011;3362;50.892;10.692;2022-10-23T03:50:12;6.57;;;1.52;;
6651;SDS011;3362;50.892;10.692;2022-10-23T03:52:39;3.13;;;1.38;;
6651;SDS011;3362;50.892;10.692;2022-10-23T03:55:06;2.08;;;1.20;;
6651;SDS011;3362;50.892;10.692;2022-10-23T03:57:33;2.58;;;1.50;;
6651;SDS011;3362;50.892;10.692;2022-10-23T04:00:05;4.45;;;1.05;;
6651;SDS011;3362;50.892;10.692;2022-10-23T04:02:33;3.50;;;1.10;;
6651;SDS011;3362;50.892;10.692;2022-10-23T04:05:01;1.40;;;1.25;;
6651;SDS011;3362;50.892;10.692;2022-10-23T04:07:28;1.45;;;0.82;;
6651;SDS011;3362;50.892;10.692;2022-10-23T04:09:59;11.13;;;2.58;;
6651;SDS011;3362;50.892;10.692;2022-10-23T04:12:28;1.38;;;0.88;;
6651;SDS011;3362;50.892;10.692;2022-10-23T04:14:55;3.53;;;1.05;;
6651;SDS011;3362;50.892;10.692;2022-10-23T04:17:22;2.20;;;1.10;;
6651;SDS011;3362;50.892;10.692;2022-10-23T04:19:50;1.48;;;1.00;;
6651;SDS011;3362;50.892;10.692;2022-10-23T04:22:20;4.47;;;1.30;;
6651;SDS011;3362;50.892;10.692;2022-10-23T04:24:47;4.32;;;1.45;;
6651;SDS011;3362;50.892;10.692;2022-10-23T04:27:16;2.58;;;1.02;;
6651;SDS011;3362;50.892;10.692;2022-10-23T04:29:43;3.80;;;1.23;;
6651;SDS011;3362;50.892;10.692;2022-10-23T04:32:12;1.63;;;0.85;;
6651;SDS011;3362;50.892;10.692;2022-10-23T04:34:41;3.50;;;0.88;;
6651;SDS011;3362;50.892;10.692;2022-10-23T04:37:13;1.60;;;1.02;;
6651;SDS011;3362;50.892;10.692;2022-10-23T04:39:41;1.45;;;1.08;;
6651;SDS011;3362;50.892;10.692;2022-10-23T04:42:10;6.05;;;1.02;;
6651;SDS011;3362;50.892;10.692;2022-10-23T04:44:37;5.38;;;0.80;;
6651;SDS011;3362;50.892;10.692;2022-10-23T04:47:07;4.47;;;1.42;;
6651;SDS011;3362;50.892;10.692;2022-10-23T04:49:36;1.20;;;1.00;;
6651;SDS011;3362;50.892;10.692;2022-10-23T04:52:03;3.70;;;1.15;;
6651;SDS011;3362;50.892;10.692;2022-10-23T04:54:34;7.47;;;0.82;;
6651;SDS011;3362;50.892;10.692;2022-10-23T04:57:04;1.17;;;0.73;;
6651;SDS011;3362;50.892;10.692;2022-10-23T04:59:32;1.25;;;0.90;;
6651;SDS011;3362;50.892;10.692;2022-10-23T05:01:59;3.30;;;1.40;;
6651;SDS011;3362;50.892;10.692;2022-10-23T05:04:28;3.15;;;0.70;;
6651;SDS011;3362;50.892;10.692;2022-10-23T05:06:55;1.52;;;0.93;;
6651;SDS011;3362;50.892;10.692;2022-10-23T05:09:22;11.20;;;1.20;;
6651;SDS011;3362;50.892;10.692;2022-10-23T05:11:50;3.90;;;0.98;;
6651;SDS011;3362;50.892;10.692;2022-10-23T05:14:18;0.85;;;0.85;;
6651;SDS011;3362;50.892;10.692;2022-10-23T05:16:45;0.60;;;0.60;;
6651;SDS011;3362;50.892;10.692;2022-10-23T05:19:16;1.05;;;0.90;;
6651;SDS011;3362;50.892;10.692;2022-10-23T05:21:44;1.25;;;0.77;;
6651;SDS011;3362;50.892;10.692;2022-10-23T05:24:13;2.33;;;1.30;;
6651;SDS011;3362;50.892;10.692;2022-10-23T05:26:40;2.75;;;1.08;;
6651;SDS011;3362;50.892;10.692;2022-10-23T05:29:08;2.75;;;1.20;;
6651;SDS011;3362;50.892;10.692;2022-10-23T05:31:37;3.60;;;1.00;;
6651;SDS011;3362;50.892;10.692;2022-10-23T05:34:04;4.15;;;0.77;;
6651;SDS011;3362;50.892;10.692;2022-10-23T05:36:31;5.35;;;1.13;;
6651;SDS011;3362;50.892;10.692;2022-10-23T05:38:58;1.30;;;0.63;;
6651;SDS011;3362;50.892;10.692;2022-10-23T05:41:25;3.35;;;0.93;;
6651;SDS011;3362;50.892;10.692;2022-10-23T05:43:54;2.53;;;0.80;;
6651;SDS011;3362;50.892;10.692;2022-10-23T05:46:21;1.92;;;0.95;;
6651;SDS011;3362;50.892;10.692;2022-10-23T05:48:50;2.03;;;1.02;;
6651;SDS011;3362;50.892;10.692;2022-10-23T05:51:17;5.30;;;1.20;;
6651;SDS011;3362;50.892;10.692;2022-10-23T05:53:46;1.65;;;1.02;;
6651;SDS011;3362;50.892;10.692;2022-10-23T05:56:13;3.13;;;0.82;;
6651;SDS011;3362;50.892;10.692;2022-10-23T05:58:40;3.67;;;0.80;;
6651;SDS011;3362;50.892;10.692;2022-10-23T06:01:08;1.77;;;0.95;;
6651;SDS011;3362;50.892;10.692;2022-10-23T06:03:35;15.63;;;1.50;;
6651;SDS011;3362;50.892;10.692;2022-10-23T06:09:06;2.78;;;0.70;;
6651;SDS011;3362;50.892;10.692;2022-10-23T06:11:36;7.05;;;1.20;;
6651;SDS011;3362;50.892;10.692;2022-10-23T06:14:02;2.25;;;1.10;;
6651;SDS011;3362;50.892;10.692;2022-10-23T06:16:29;3.30;;;1.60;;
6651;SDS011;3362;50.892;10.692;2022-10-23T06:18:56;3.05;;;1.42;;
6651;SDS011;3362;50.892;10.692;2022-10-23T06:21:23;2.72;;;1.35;;
6651;SDS011;3362;50.892;10.692;2022-10-23T06:23:49;1.90;;;1.27;;
6651;SDS011;3362;50.892;10.692;2022-10-23T06:26:19;2.42;;;1.40;;
6651;SDS011;3362;50.892;10.692;2022-10-23T06:28:46;1.75;;;1.30;;
6651;SDS011;3362;50.892;10.692;2022-10-23T06:31:14;2.05;;;1.27;;
6651;SDS011;3362;50.892;10.692;2022-10-23T06:33:43;2.58;;;1.05;;
6651;SDS011;3362;50.892;10.692;2022-10-23T06:36:09;1.55;;;1.17;;
6651;SDS011;3362;50.892;10.692;2022-10-23T06:38:38;5.35;;;1.52;;
6651;SDS011;3362;50.892;10.692;2022-10-23T06:41:10;2.08;;;1.13;;
6651;SDS011;3362;50.892;10.692;2022-10-23T06:43:45;10.57;;;1.10;;
6651;SDS011;3362;50.892;10.692;2022-10-23T06:46:12;8.98;;;1.30;;
6651;SDS011;3362;50.892;10.692;2022-10-23T06:48:41;3.97;;;1.35;;
6651;SDS011;3362;50.892;10.692;2022-10-23T06:51:14;3.33;;;1.08;;
6651;SDS011;3362;50.892;10.692;2022-10-23T06:53:41;6.60;;;1.55;;
6651;SDS011;3362;50.892;10.692;2022-10-23T06:56:08;2.97;;;0.85;;
6651;SDS011;3362;50.892;10.692;2022-10-23T06:58:36;2.90;;;1.58;;
6651;SDS011;3362;50.892;10.692;2022-10-23T07:01:05;4.03;;;1.30;;
6651;SDS011;3362;50.892;10.692;2022-10-23T07:03:31;2.45;;;0.80;;
6651;SDS011;3362;50.892;10.692;2022-10-23T07:06:04;7.43;;;1.73;;
6651;SDS011;3362;50.892;10.692;2022-10-23T07:08:31;3.72;;;1.30;;
6651;SDS011;3362;50.892;10.692;2022-10-23T07:11:01;3.10;;;1.23;;
6651;SDS011;3362;50.892;10.692;2022-10-23T07:13:30;2.78;;;1.55;;
6651;SDS011;3362;50.892;10.692;2022-10-23T07:15:58;2.50;;;1.65;;
6651;SDS011;3362;50.892;10.692;2022-10-23T07:18:26;1.75;;;1.27;;
6651;SDS011;3362;50.892;10.692;2022-10-23T07:20:56;2.15;;;1.10;;
6651;SDS011;3362;50.892;10.692;2022-10-23T07:23:23;3.42;;;1.45;;
6651;SDS011;3362;50.892;10.692;2022-10-23T07:25:52;2.78;;;1.77;;
6651;SDS011;3362;50.892;10.692;2022-10-23T07:28:22;1.95;;;1.67;;
6651;SDS011;3362;50.892;10.692;2022-10-23T07:30:54;2.20;;;1.10;;
6651;SDS011;3362;50.892;10.692;2022-10-23T07:33:23;2.53;;;1.35;;
6651;SDS011;3362;50.892;10.692;2022-10-23T07:35:51;8.27;;;1.52;;
6651;SDS011;3362;50.892;10.692;2022-10-23T07:38:18;2.15;;;1.38;;
6651;SDS011;3362;50.892;10.692;2022-10-23T07:40:45;3.35;;;1.58;;
6651;SDS011;3362;50.892;10.692;2022-10-23T07:43:11;3.40;;;1.50;;
6651;SDS011;3362;50.892;10.692;2022-10-23T07:45:38;5.78;;;1.60;;
6651;SDS011;3362;50.892;10.692;2022-10-23T07:48:10;4.47;;;1.52;;
6651;SDS011;3362;50.892;10.692;2022-10-23T07:50:37;1.70;;;1.23;;
6651;SDS011;3362;50.892;10.692;2022-10-23T07:53:10;3.22;;;1.80;;
6651;SDS011;3362;50.892;10.692;2022-10-23T07:55:40;9.55;;;1.52;;
6651;SDS011;3362;50.892;10.692;2022-10-23T07:58:13;2.85;;;1.42;;
6651;SDS011;3362;50.892;10.692;2022-10-23T08:00:45;1.00;;;0.90;;
6651;SDS011;3362;50.892;10.692;2022-10-23T08:03:18;1.98;;;1.05;;
6651;SDS011;3362;50.892;10.692;2022-10-23T08:05:53;2.17;;;1.23;;
6651;SDS011;3362;50.892;10.692;2022-10-23T08:08:28;4.50;;;1.40;;
6651;SDS011;3362;50.892;10.692;2022-10-23T08:11:00;3.25;;;1.45;;
6651;SDS011;3362;50.892;10.692;2022-10-23T08:13:31;1.27;;;0.90;;
6651;SDS011;3362;50.892;10.692;2022-10-23T08:16:01;5.10;;;1.98;;
6651;SDS011;3362;50.892;10.692;2022-10-23T08:18:28;4.07;;;2.22;;
6651;SDS011;3362;50.892;10.692;2022-10-23T08:20:58;4.68;;;2.20;;
6651;SDS011;3362;50.892;10.692;2022-10-23T08:23:33;4.43;;;1.70;;
6651;SDS011;3362;50.892;10.692;2022-10-23T08:26:00;3.28;;;1.25;;
6651;SDS011;3362;50.892;10.692;2022-10-23T08:28:31;4.65;;;1.13;;
6651;SDS011;3362;50.892;10.692;2022-10-23T08:31:05;4.00;;;1.20;;
6651;SDS011;3362;50.892;10.692;2022-10-23T08:33:37;1.52;;;1.10;;
6651;SDS011;3362;50.892;10.692;2022-10-23T08:36:12;1.75;;;0.73;;
6651;SDS011;3362;50.892;10.692;2022-10-23T08:38:47;5.28;;;1.73;;
6651;SDS011;3362;50.892;10.692;2022-10-23T08:41:22;5.25;;;1.35;;
6651;SDS011;3362;50.892;10.692;2022-10-23T08:43:52;2.60;;;1.27;;
6651;SDS011;3362;50.892;10.692;2022-10-23T08:46:20;2.35;;;1.35;;
6651;SDS011;3362;50.892;10.692;2022-10-23T08:48:52;4.25;;;1.80;;
6651;SDS011;3362;50.892;10.692;2022-10-23T08:51:24;0.63;;;0.50;;
6651;SDS011;3362;50.892;10.692;2022-10-23T08:53:56;2.28;;;1.20;;
6651;SDS011;3362;50.892;10.692;2022-10-23T08:56:30;10.13;;;0.98;;
6651;SDS011;3362;50.892;10.692;2022-10-23T08:59:00;1.63;;;0.75;;
6651;SDS011;3362;50.892;10.692;2022-10-23T09:01:38;7.05;;;0.90;;
6651;SDS011;3362;50.892;10.692;2022-10-23T09:04:11;8.05;;;0.70;;
6651;SDS011;3362;50.892;10.692;2022-10-23T09:06:47;1.48;;;0.65;;
6651;SDS011;3362;50.892;10.692;2022-10-23T09:09:23;1.80;;;0.52;;
6651;SDS011;3362;50.892;10.692;2022-10-23T09:11:58;1.27;;;0.70;;
6651;SDS011;3362;50.892;10.692;2022-10-23T09:14:47;3.30;;;0.40;;
6651;SDS011;3362;50.892;10.692;2022-10-23T09:17:22;1.67;;;0.73;;
6651;SDS011;3362;50.892;10.692;2022-10-23T09:19:53;1.85;;;0.73;;
6651;SDS011;3362;50.892;10.692;2022-10-23T09:22:27;0.43;;;0.40;;
6651;SDS011;3362;50.892;10.692;2022-10-23T09:25:09;1.40;;;0.68;;
6651;SDS011;3362;50.892;10.692;2022-10-23T09:27:43;1.77;;;0.65;;
6651;SDS011;3362;50.892;10.692;2022-10-23T09:30:26;1.65;;;0.43;;
6651;SDS011;3362;50.892;10.692;2022-10-23T09:32:56;1.20;;;0.57;;
6651;SDS011;3362;50.892;10.692;2022-10-23T09:35:34;4.97;;;0.65;;
6651;SDS011;3362;50.892;10.692;2022-10-23T09:38:21;3.90;;;0.55;;
6651;SDS011;3362;50.892;10.692;2022-10-23T09:40:54;2.22;;;0.60;;
6651;SDS011;3362;50.892;10.692;2022-10-23T09:43:35;1.20;;;0.65;;
6651;SDS011;3362;50.892;10.692;2022-10-23T09:46:07;1.98;;;0.38;;
6651;SDS011;3362;50.892;10.692;2022-10-23T09:48:40;1.42;;;0.40;;
6651;SDS011;3362;50.892;10.692;2022-10-23T09:51:14;0.50;;;0.47;;
6651;SDS011;3362;50.892;10.692;2022-10-23T09:53:48;1.30;;;0.93;;
6651;SDS011;3362;50.892;10.692;2022-10-23T09:56:27;0.98;;;0.40;;
6651;SDS011;3362;50.892;10.692;2022-10-23T09:58:58;1.48;;;0.40;;
6651;SDS011;3362;50.892;10.692;2022-10-23T10:01:25;0.60;;;0.60;;
6651;SDS011;3362;50.892;10.692;2022-10-23T10:03:53;0.40;;;0.40;;
6651;SDS011;3362;50.892;10.692;2022-10-23T10:06:24;1.00;;;0.70;;
6651;SDS011;3362;50.892;10.692;2022-10-23T10:09:01;1.80;;;0.60;;
6651;SDS011;3362;50.892;10.692;2022-10-23T10:11:35;2.33;;;0.60;;
6651;SDS011;3362;50.892;10.692;2022-10-23T10:14:05;0.57;;;0.40;;
6651;SDS011;3362;50.892;10.692;2022-10-23T10:16:41;4.60;;;0.50;;
6651;SDS011;3362;50.892;10.692;2022-10-23T10:19:11;0.40;;;0.40;;
6651;SDS011;3362;50.892;10.692;2022-10-23T10:21:41;1.65;;;0.77;;
6651;SDS011;3362;50.892;10.692;2022-10-23T10:24:11;1.42;;;0.50;;
6651;SDS011;3362;50.892;10.692;2022-10-23T10:26:42;12.95;;;0.52;;
6651;SDS011;3362;50.892;10.692;2022-10-23T10:29:12;0.55;;;0.50;;
6651;SDS011;3362;50.892;10.692;2022-10-23T10:31:45;1.27;;;0.80;;
6651;SDS011;3362;50.892;10.692;2022-10-23T10:34:15;1.25;;;0.50;;
6651;SDS011;3362;50.892;10.692;2022-10-23T10:36:46;0.70;;;0.50;;
6651;SDS011;3362;50.892;10.692;2022-10-23T10:39:16;3.20;;;0.60;;
6651;SDS011;3362;50.892;10.692;2022-10-23T10:41:48;0.77;;;0.50;;
6651;SDS011;3362;50.892;10.692;2022-10-23T10:46:58;2.22;;;0.47;;
6651;SDS011;3362;50.892;10.692;2022-10-23T10:49:30;0.30;;;0.30;;
6651;SDS011;3362;50.892;10.692;2022-10-23T10:52:01;0.50;;;0.32;;
6651;SDS011;3362;50.892;10.692;2022-10-23T10:54:32;1.95;;;0.60;;
6651;SDS011;3362;50.892;10.692;2022-10-23T10:57:04;0.43;;;0.30;;
6651;SDS011;3362;50.892;10.692;2022-10-23T10:59:33;0.47;;;0.40;;
6651;SDS011;3362;50.892;10.692;2022-10-23T11:02:04;2.55;;;0.85;;
6651;SDS011;3362;50.892;10.692;2022-10-23T11:04:38;0.52;;;0.50;;
6651;SDS011;3362;50.892;10.692;2022-10-23T11:07:08;0.40;;;0.40;;
6651;SDS011;3362;50.892;10.692;2022-10-23T11:09:36;1.08;;;0.40;;
6651;SDS011;3362;50.892;10.692;2022-10-23T11:12:04;0.40;;;0.40;;
6651;SDS011;3362;50.892;10.692;2022-10-23T11:14:31;0.50;;;0.40;;
6651;SDS011;3362;50.892;10.692;2022-10-23T11:17:00;0.52;;;0.40;;
6651;SDS011;3362;50.892;10.692;2022-10-23T11:19:27;0.57;;;0.35;;
6651;SDS011;3362;50.892;10.692;2022-10-23T11:21:56;0.30;;;0.30;;
6651;SDS011;3362;50.892;10.692;2022-10-23T11:24:30;1.20;;;0.43;;
6651;SDS011;3362;50.892;10.692;2022-10-23T11:29:49;1.00;;;0.40;;
6651;SDS011;3362;50.892;10.692;2022-10-23T11:32:25;0.65;;;0.40;;
6651;SDS011;3362;50.892;10.692;2022-10-23T11:35:02;0.60;;;0.35;;
6651;SDS011;3362;50.892;10.692;2022-10-23T11:37:31;0.73;;;0.52;;
6651;SDS011;3362;50.892;10.692;2022-10-23T11:39:59;0.40;;;0.40;;
6651;SDS011;3362;50.892;10.692;2022-10-23T11:42:29;0.55;;;0.40;;
6651;SDS011;3362;50.892;10.692;2022-10-23T11:44:57;1.05;;;0.40;;
6651;SDS011;3362;50.892;10.692;2022-10-23T11:47:28;1.65;;;0.45;;
6651;SDS011;3362;50.892;10.692;2022-10-23T11:50:14;0.32;;;0.32;;
6651;SDS011;3362;50.892;10.692;2022-10-23T11:52:51;0.70;;;0.68;;
6651;SDS011;3362;50.892;10.692;2022-10-23T11:55:19;1.13;;;0.50;;
6651;SDS011;3362;50.892;10.692;2022-10-23T11:57:58;1.38;;;0.60;;
6651;SDS011;3362;50.892;10.692;2022-10-23T12:00:32;0.30;;;0.30;;
6651;SDS011;3362;50.892;10.692;2022-10-23T12:02:58;0.50;;;0.40;;
6651;SDS011;3362;50.892;10.692;2022-10-23T12:05:27;0.63;;;0.43;;
6651;SDS011;3362;50.892;10.692;2022-10-23T12:07:56;3.20;;;0.47;;
6651;SDS011;3362;50.892;10.692;2022-10-23T12:10:25;0.50;;;0.50;;
6651;SDS011;3362;50.892;10.692;2022-10-23T12:12:56;1.15;;;0.50;;
6651;SDS011;3362;50.892;10.692;2022-10-23T12:15:22;0.55;;;0.40;;
6651;SDS011;3362;50.892;10.692;2022-10-23T12:17:51;0.50;;;0.50;;
6651;SDS011;3362;50.892;10.692;2022-10-23T12:20:22;0.35;;;0.30;;
6651;SDS011;3362;50.892;10.692;2022-10-23T12:22:53;0.70;;;0.50;;
6651;SDS011;3362;50.892;10.692;2022-10-23T12:25:22;1.55;;;0.40;;
6651;SDS011;3362;50.892;10.692;2022-10-23T12:27:51;3.30;;;0.55;;
6651;SDS011;3362;50.892;10.692;2022-10-23T12:30:21;0.30;;;0.30;;
6651;SDS011;3362;50.892;10.692;2022-10-23T12:32:55;1.10;;;0.52;;
6651;SDS011;3362;50.892;10.692;2022-10-23T12:35:26;1.10;;;0.40;;
6651;SDS011;3362;50.892;10.692;2022-10-23T12:38:00;3.45;;;0.70;;
6651;SDS011;3362;50.892;10.692;2022-10-23T12:40:28;0.60;;;0.52;;
6651;SDS011;3362;50.892;10.692;2022-10-23T12:42:56;1.05;;;0.70;;
6651;SDS011;3362;50.892;10.692;2022-10-23T12:45:23;1.02;;;0.75;;
6651;SDS011;3362;50.892;10.692;2022-10-23T12:47:49;1.33;;;0.70;;
6651;SDS011;3362;50.892;10.692;2022-10-23T12:50:19;3.28;;;0.77;;
6651;SDS011;3362;50.892;10.692;2022-10-23T12:52:49;0.85;;;0.60;;
6651;SDS011;3362;50.892;10.692;2022-10-23T12:55:16;0.98;;;0.70;;
6651;SDS011;3362;50.892;10.692;2022-10-23T12:57:43;1.30;;;0.73;;
6651;SDS011;3362;50.892;10.692;2022-10-23T13:00:13;1.88;;;0.50;;
6651;SDS011;3362;50.892;10.692;2022-10-23T13:02:40;1.15;;;0.50;;
6651;SDS011;3362;50.892;10.692;2022-10-23T13:05:06;1.98;;;0.82;;
6651;SDS011;3362;50.892;10.692;2022-10-23T13:07:38;1.15;;;0.60;;
6651;SDS011;3362;50.892;10.692;2022-10-23T13:10:09;0.77;;;0.65;;
6651;SDS011;3362;50.892;10.692;2022-10-23T13:12:36;0.50;;;0.50;;
6651;SDS011;3362;50.892;10.692;2022-10-23T13:15:13;0.98;;;0.30;;
6651;SDS011;3362;50.892;10.692;2022-10-23T13:17:41;0.65;;;0.50;;
6651;SDS011;3362;50.892;10.692;2022-10-23T13:20:18;2.10;;;0.63;;
6651;SDS011;3362;50.892;10.692;2022-10-23T13:22:47;0.40;;;0.35;;
6651;SDS011;3362;50.892;10.692;2022-10-23T13:25:20;0.50;;;0.50;;
6651;SDS011;3362;50.892;10.692;2022-10-23T13:27:47;0.70;;;0.50;;
6651;SDS011;3362;50.892;10.692;2022-10-23T13:30:26;0.50;;;0.50;;
6651;SDS011;3362;50.892;10.692;2022-10-23T13:32:52;1.02;;;0.40;;
6651;SDS011;3362;50.892;10.692;2022-10-23T13:35:19;1.85;;;0.77;;
6651;SDS011;3362;50.892;10.692;2022-10-23T13:37:47;1.65;;;0.63;;
6651;SDS011;3362;50.892;10.692;2022-10-23T13:40:19;0.82;;;0.70;;
6651;SDS011;3362;50.892;10.692;2022-10-23T13:42:47;1.73;;;0.60;;
6651;SDS011;3362;50.892;10.692;2022-10-23T13:45:15;0.73;;;0.70;;
6651;SDS011;3362;50.892;10.692;2022-10-23T13:47:43;0.93;;;0.50;;
6651;SDS011;3362;50.892;10.692;2022-10-23T13:50:09;14.68;;;0.75;;
6651;SDS011;3362;50.892;10.692;2022-10-23T13:52:36;1.73;;;0.50;;
6651;SDS011;3362;50.892;10.692;2022-10-23T13:55:05;3.13;;;0.70;;
6651;SDS011;3362;50.892;10.692;2022-10-23T13:57:35;0.40;;;0.40;;
6651;SDS011;3362;50.892;10.692;2022-10-23T14:00:01;6.97;;;0.70;;
6651;SDS011;3362;50.892;10.692;2022-10-23T14:02:27;1.90;;;0.60;;
6651;SDS011;3362;50.892;10.692;2022-10-23T14:04:53;1.45;;;0.50;;
6651;SDS011;3362;50.892;10.692;2022-10-23T14:07:20;1.98;;;0.60;;
6651;SDS011;3362;50.892;10.692;2022-10-23T14:09:46;0.45;;;0.45;;
6651;SDS011;3362;50.892;10.692;2022-10-23T14:12:14;2.30;;;1.08;;
6651;SDS011;3362;50.892;10.692;2022-10-23T14:14:40;1.90;;;1.05;;
6651;SDS011;3362;50.892;10.692;2022-10-23T14:17:06;1.10;;;1.00;;
6651;SDS011;3362;50.892;10.692;2022-10-23T14:19:32;1.10;;;1.00;;
6651;SDS011;3362;50.892;10.692;2022-10-23T14:21:59;2.05;;;1.25;;
6651;SDS011;3362;50.892;10.692;2022-10-23T14:24:25;4.60;;;1.17;;
6651;SDS011;3362;50.892;10.692;2022-10-23T14:26:51;1.02;;;0.63;;
6651;SDS011;3362;50.892;10.692;2022-10-23T14:29:19;2.15;;;1.35;;
6651;SDS011;3362;50.892;10.692;2022-10-23T14:31:45;1.80;;;1.10;;
6651;SDS011;3362;50.892;10.692;2022-10-23T14:34:12;2.47;;;1.20;;
6651;SDS011;3362;50.892;10.692;2022-10-23T14:36:38;2.85;;;0.80;;
6651;SDS011;3362;50.892;10.692;2022-10-23T14:39:04;2.70;;;1.00;;
6651;SDS011;3362;50.892;10.692;2022-10-23T14:41:31;1.35;;;0.82;;
6651;SDS011;3362;50.892;10.692;2022-10-23T14:43:57;1.15;;;0.80;;
6651;SDS011;3362;50.892;10.692;2022-10-23T14:46:24;4.75;;;0.80;;
6651;SDS011;3362;50.892;10.692;2022-10-23T14:48:52;1.25;;;0.90;;
6651;SDS011;3362;50.892;10.692;2022-10-23T14:51:19;2.08;;;0.88;;
6651;SDS011;3362;50.892;10.692;2022-10-23T14:53:46;0.95;;;0.70;;
6651;SDS011;3362;50.892;10.692;2022-10-23T14:56:13;6.00;;;1.58;;
6651;SDS011;3362;50.892;10.692;2022-10-23T14:58:39;2.40;;;0.80;;
6651;SDS011;3362;50.892;10.692;2022-10-23T15:01:06;4.68;;;1.10;;
6651;SDS011;3362;50.892;10.692;2022-10-23T15:03:35;1.35;;;1.00;;
6651;SDS011;3362;50.892;10.692;2022-10-23T15:06:01;3.97;;;1.55;;
6651;SDS011;3362;50.892;10.692;2022-10-23T15:08:28;4.15;;;1.95;;
6651;SDS011;3362;50.892;10.692;2022-10-23T15:10:54;6.88;;;2.10;;
6651;SDS011;3362;50.892;10.692;2022-10-23T15:13:24;4.75;;;2.40;;
6651;SDS011;3362;50.892;10.692;2022-10-23T15:15:50;3.78;;;2.17;;
6651;SDS011;3362;50.892;10.692;2022-10-23T15:18:25;6.35;;;2.50;;
6651;SDS011;3362;50.892;10.692;2022-10-23T15:20:53;7.03;;;3.58;;
6651;SDS011;3362;50.892;10.692;2022-10-23T15:23:19;7.05;;;3.95;;